Aérodrome :
LOGIN :

S'inscrire | Disclaimer

   EN    FR    IT 

 










Légende :    VFR   VFR Marginal   IFR   IFR Intensif   IFR Très Intensif
Visi : 
Plafond : 
>= 8 km
>= 3000ft
5 à 8 km
1000 à 3000 ft
1500m à 5 km
500 à 1000 ft
800 à 1500m
200 à 500 ft
< 800m
< 200 ft
Symboles :   Orages  Brouillard  Fortes neiges  Fortes précipitations  Vent > 20 kt
SIGMETs :   Divers  Orages  Givrage  Turbulence  Onde Orograph.  Cendres Volcan.







- Altitude de l'aérodrome : 257 ft
- Code IATA : MAN
- Voir les cartes d'approche


EGCC - Manchester

DERNIER METAR :
  • 191320Z AUTO 25016KT 9999 BKN029/// BKN047/// //////TCU 05/00 Q1005

METARs EXPIRÉS :
  • 191250Z 25011KT 9999 SCT025CB 05/00 Q1005 NOSIG
  • 191220Z 24012KT 9999 SCT025CB 05/01 Q1005
  • 191150Z 23007KT 9999 FEW025 04/01 Q1005
  • 191120Z AUTO 21007KT 9999 SCT026 BKN036 04/01 Q1006 BECMG 27012KT
  • 191050Z AUTO 21006KT 9999 SCT031 04/01 Q1006

TAF TAF EGCC
Valide du 19 à 12h jusqu'au 20 à 18h UTC


191101Z 1912/2018 24010KT 9999 SCT030
TEMPO 1912/1924 27015G25KT 7000 SHRA BKN014 BKN020CB
PROB30
TEMPO 1912/2001 4000 SHRASN BKN008
BECMG 2000/2003 18006KT
PROB30
TEMPO 2008/2018 5000 -RA BKN005
ATIS : +44 161 499 2324
Pas de NOTAMs connus pour ce terrain.



MET'MAP, la Météo Aéronautique d'un coup d'oeil ! - Copyright ORBIFLY Décembre 2007 - Disclaimer

ORBIFLY MET'MAP TEAM :

Programmation & Développement : Alexandra Zaïnal
Conception & Développement : Baudouin d'Aumeries
Co-Programmation & Développement : Marc-Olivier Méhu
Soutien technique & logistique : Manuel Goepfert

Contact : metmap@orbifly.com




SOURCES & CREDITS :

   NOAA